Time;durP1;ratioP1;P1;durP2;ratioP2;P2;SDS_P1;SDS_P2;PMS_P1;PMS_P2;Temp;Humidity;BMP_temperature;BMP_pressure;BME280_temperature;BME280_humidity;BME280_pressure;Samples;Min_cycle;Max_cycle;Signal;HPM_P1;HPM_P2
2023/03/20 00:01:55;;;;;;;12.85;5.85;;;7.20;78.50;;;;;;4121827;28;20038;-81
2023/03/20 00:04:15;;;;;;;10.05;5.13;;;7.20;78.70;;;;;;4142018;28;20073;-82
2023/03/20 00:06:19;;;;;;;10.63;5.78;;;7.20;78.60;;;;;;4141354;28;20034;-81
2023/03/20 00:08:39;;;;;;;10.00;5.50;;;7.20;78.70;;;;;;4142390;28;20765;-83
2023/03/20 00:11:00;;;;;;;8.32;4.80;;;7.10;78.70;;;;;;4124592;28;20030;-82
2023/03/20 00:13:26;;;;;;;9.80;4.53;;;7.20;78.90;;;;;;4139040;28;20041;-82
2023/03/20 00:15:47;;;;;;;9.40;4.30;;;7.10;78.70;;;;;;4141424;28;20022;-82
2023/03/20 00:18:26;;;;;;;7.00;3.45;;;7.10;78.50;;;;;;4142071;28;20101;-83
2023/03/20 00:20:48;;;;;;;6.57;3.40;;;7.20;78.90;;;;;;4125242;28;20109;-82
2023/03/20 00:22:49;;;;;;;5.07;2.97;;;7.10;78.70;;;;;;4125235;28;20122;-82
2023/03/20 00:25:19;;;;;;;7.50;3.15;;;7.10;78.60;;;;;;4143306;28;20137;-83
2023/03/20 00:27:40;;;;;;;3.83;2.80;;;7.20;78.70;;;;;;4123407;28;20026;-83
2023/03/20 00:29:41;;;;;;;4.97;2.78;;;7.10;78.80;;;;;;4135243;28;20026;-83
2023/03/20 00:32:02;;;;;;;4.45;2.47;;;7.10;78.90;;;;;;4142020;28;20030;-82
2023/03/20 00:34:29;;;;;;;3.70;2.20;;;7.00;78.80;;;;;;4145903;28;20102;-82
2023/03/20 00:36:51;;;;;;;3.55;2.30;;;7.00;78.80;;;;;;4128030;28;20048;-83
2023/03/20 00:39:11;;;;;;;5.40;2.13;;;7.00;78.90;;;;;;4124318;28;20615;-82
2023/03/20 00:41:38;;;;;;;3.40;2.08;;;7.00;78.80;;;;;;4144293;28;20096;-84
2023/03/20 00:44:03;;;;;;;3.92;2.03;;;7.00;78.90;;;;;;4141125;28;20033;-83
2023/03/20 00:46:25;;;;;;;6.88;1.98;;;7.20;78.90;;;;;;4140415;28;20069;-82
2023/03/20 00:48:46;;;;;;;3.30;2.00;;;7.00;78.80;;;;;;4126209;28;20045;-82
2023/03/20 00:51:08;;;;;;;2.75;1.65;;;6.90;78.80;;;;;;4127664;28;20041;-83
2023/03/20 00:53:28;;;;;;;3.30;2.20;;;7.00;79.00;;;;;;4131841;28;20023;-82
2023/03/20 00:55:49;;;;;;;3.25;2.20;;;7.00;78.90;;;;;;4146455;28;20085;-83
2023/03/20 00:58:10;;;;;;;2.22;1.52;;;7.00;79.70;;;;;;4141564;28;20045;-83
2023/03/20 01:00:44;;;;;;;3.53;2.08;;;7.00;78.90;;;;;;4139562;28;20109;-82
2023/03/20 01:03:23;;;;;;;3.17;1.67;;;7.00;79.10;;;;;;4139971;28;20042;-82
2023/03/20 01:05:45;;;;;;;2.10;1.27;;;6.90;79.10;;;;;;4140026;28;20696;-83
2023/03/20 01:08:25;;;;;;;3.00;1.70;;;6.90;78.90;;;;;;4128862;28;20434;-82
2023/03/20 01:10:49;;;;;;;3.67;1.85;;;6.90;79.20;;;;;;4144325;28;20046;-82
2023/03/20 01:13:34;;;;;;;2.85;1.60;;;6.90;79.10;;;;;;4142761;28;20033;-83
2023/03/20 01:15:56;;;;;;;2.65;1.45;;;6.90;79.00;;;;;;4142430;28;20034;-83
2023/03/20 01:18:23;;;;;;;4.88;2.00;;;6.90;79.00;;;;;;4147504;28;20092;-83
2023/03/20 01:20:44;;;;;;;5.28;2.10;;;7.00;79.20;;;;;;4139409;28;20264;-83
2023/03/20 01:23:05;;;;;;;3.30;2.20;;;6.90;79.20;;;;;;4141100;28;20129;-83
2023/03/20 01:25:25;;;;;;;3.03;2.08;;;6.90;79.30;;;;;;4146168;28;20138;-82
2023/03/20 01:27:50;;;;;;;2.72;1.90;;;6.90;79.20;;;;;;4132300;28;20704;-83
2023/03/20 01:30:21;;;;;;;3.03;1.60;;;6.90;79.30;;;;;;4145304;28;20057;-82
2023/03/20 01:32:42;;;;;;;2.85;1.73;;;6.90;79.40;;;;;;4143806;28;20025;-83
2023/03/20 01:35:04;;;;;;;3.22;1.98;;;6.90;79.30;;;;;;4133143;28;20030;-83
2023/03/20 01:37:26;;;;;;;4.47;1.70;;;6.80;79.20;;;;;;4129177;28;20061;-83
2023/03/20 01:39:47;;;;;;;3.65;2.00;;;6.80;79.30;;;;;;4146187;28;20026;-82
2023/03/20 01:42:10;;;;;;;3.75;2.20;;;6.90;79.30;;;;;;4143307;28;20045;-83
2023/03/20 01:44:33;;;;;;;4.63;1.87;;;6.80;79.30;;;;;;4145507;28;20350;-82
2023/03/20 01:46:54;;;;;;;2.65;1.83;;;6.80;79.30;;;;;;4125754;28;20038;-82
2023/03/20 01:49:17;;;;;;;3.78;2.08;;;6.80;79.30;;;;;;4125669;28;20065;-82
2023/03/20 01:51:38;;;;;;;4.38;2.42;;;6.80;79.40;;;;;;4129363;28;20181;-84
2023/03/20 01:54:07;;;;;;;2.85;1.83;;;6.80;79.40;;;;;;4139181;28;20123;-82
2023/03/20 01:56:34;;;;;;;2.60;1.70;;;6.80;79.40;;;;;;4140267;28;20041;-82
2023/03/20 01:59:02;;;;;;;3.58;2.28;;;6.80;79.50;;;;;;4127238;28;20097;-83
2023/03/20 02:01:24;;;;;;;4.35;2.60;;;6.80;79.60;;;;;;4145679;28;20042;-83
2023/03/20 02:03:48;;;;;;;4.30;2.25;;;6.80;79.60;;;;;;4143316;28;20053;-83
2023/03/20 02:06:10;;;;;;;3.88;2.40;;;6.80;79.50;;;;;;4145292;28;20048;-82
2023/03/20 02:08:50;;;;;;;6.05;2.70;;;6.70;79.50;;;;;;4142474;28;20030;-82
2023/03/20 02:11:11;;;;;;;7.03;2.40;;;6.80;79.80;;;;;;4143850;28;20038;-82
2023/03/20 02:13:14;;;;;;;5.13;2.60;;;6.80;79.60;;;;;;4142727;28;20455;-83
2023/03/20 02:15:16;;;;;;;3.90;2.58;;;6.70;79.60;;;;;;4141640;28;20022;-82
2023/03/20 02:17:17;;;;;;;3.58;2.53;;;6.70;79.70;;;;;;4123407;28;20093;-82
2023/03/20 02:19:39;;;;;;;5.47;2.53;;;6.80;79.80;;;;;;4142520;28;20459;-82
2023/03/20 02:22:25;;;;;;;3.97;2.40;;;6.70;79.80;;;;;;4144818;28;20018;-83
2023/03/20 02:24:50;;;;;;;4.80;2.47;;;6.70;79.90;;;;;;4069749;28;20085;-82
2023/03/20 02:27:15;;;;;;;3.40;2.30;;;6.70;79.80;;;;;;4143017;28;20121;-82
2023/03/20 02:29:54;;;;;;;6.93;2.80;;;6.70;79.80;;;;;;4142724;28;20030;-82
2023/03/20 02:32:28;;;;;;;3.20;2.30;;;6.60;79.90;;;;;;4145754;28;20021;-83
2023/03/20 02:35:10;;;;;;;3.92;1.70;;;6.60;79.80;;;;;;4133151;28;20065;-83
2023/03/20 02:37:30;;;;;;;2.53;1.60;;;6.60;79.80;;;;;;4145841;28;20026;-82
2023/03/20 02:40:07;;;;;;;2.92;1.50;;;6.60;79.70;;;;;;4143016;28;20408;-82
2023/03/20 02:42:34;;;;;;;1.90;1.25;;;6.60;79.80;;;;;;4129954;28;20039;-83
2023/03/20 02:45:09;;;;;;;1.48;1.20;;;6.60;79.70;;;;;;4144362;28;20030;-83
2023/03/20 02:47:45;;;;;;;3.25;1.42;;;6.60;79.90;;;;;;4145611;28;20034;-83
2023/03/20 02:50:14;;;;;;;1.38;1.05;;;6.60;79.90;;;;;;4143967;28;21420;-83
2023/03/20 02:52:47;;;;;;;3.95;1.50;;;6.60;79.80;;;;;;4130740;28;20052;-82
2023/03/20 02:55:38;;;;;;;3.67;1.55;;;6.60;79.90;;;;;;4127727;28;20100;-82
2023/03/20 02:58:09;;;;;;;1.50;1.20;;;6.60;80.00;;;;;;4142534;28;20176;-82
2023/03/20 03:00:38;;;;;;;3.25;1.33;;;6.60;80.00;;;;;;4146411;28;20026;-82
2023/03/20 03:03:14;;;;;;;3.00;1.58;;;6.60;80.00;;;;;;4145485;28;20037;-82
2023/03/20 03:05:47;;;;;;;1.85;1.00;;;6.60;80.00;;;;;;4143399;28;20036;-82
2023/03/20 03:08:12;;;;;;;1.85;1.30;;;6.60;80.00;;;;;;4149159;28;20026;-81
2023/03/20 03:10:46;;;;;;;2.05;1.15;;;6.60;80.00;;;;;;4141784;28;20096;-82
2023/03/20 03:13:14;;;;;;;1.58;1.25;;;6.60;80.00;;;;;;4146195;28;20053;-82
2023/03/20 03:15:38;;;;;;;3.53;1.20;;;6.50;80.00;;;;;;4145766;28;20557;-82
2023/03/20 03:18:01;;;;;;;1.83;1.23;;;6.60;80.00;;;;;;4143666;28;20096;-82
2023/03/20 03:20:27;;;;;;;2.35;1.00;;;6.60;80.10;;;;;;4141852;28;20038;-82
2023/03/20 03:22:49;;;;;;;1.80;1.20;;;6.60;80.10;;;;;;4127453;28;20049;-82
2023/03/20 03:25:11;;;;;;;2.30;1.42;;;6.60;80.20;;;;;;4146466;28;20041;-83
2023/03/20 03:27:42;;;;;;;2.30;1.20;;;6.60;80.10;;;;;;4145765;28;20038;-83
2023/03/20 03:30:23;;;;;;;1.98;1.27;;;6.60;80.20;;;;;;4141911;28;20034;-82
2023/03/20 03:33:18;;;;;;;3.83;1.25;;;6.60;80.20;;;;;;4146968;28;20044;-83
2023/03/20 03:35:39;;;;;;;1.88;1.25;;;6.60;80.30;;;;;;4140588;28;20046;-82
2023/03/20 03:38:05;;;;;;;1.50;1.10;;;6.60;80.20;;;;;;4142379;28;20033;-82
2023/03/20 03:40:45;;;;;;;2.08;1.30;;;6.60;80.10;;;;;;4135943;28;20049;-83
2023/03/20 03:43:30;;;;;;;1.65;1.20;;;6.60;80.30;;;;;;4139606;28;20073;-81
2023/03/20 03:46:01;;;;;;;;;;;6.70;80.40;;;;;;4137316;28;20038;-82
2023/03/20 03:48:30;;;;;;;2.13;1.33;;;6.60;80.70;;;;;;4127620;28;20327;-83
2023/03/20 03:50:55;;;;;;;3.22;1.50;;;6.60;80.10;;;;;;4130149;28;20067;-82
2023/03/20 03:53:24;;;;;;;2.78;1.20;;;6.60;80.10;;;;;;4134845;28;20041;-83
2023/03/20 03:55:49;;;;;;;3.53;1.20;;;6.60;80.30;;;;;;4144178;28;20037;-83
2023/03/20 03:58:32;;;;;;;2.22;1.23;;;6.60;80.20;;;;;;4139683;28;20030;-83
2023/03/20 04:00:55;;;;;;;3.28;1.00;;;6.60;80.40;;;;;;4129567;28;20070;-82
2023/03/20 04:03:19;;;;;;;4.10;1.70;;;6.60;80.30;;;;;;4146466;28;20034;-82
2023/03/20 04:05:43;;;;;;;3.70;1.50;;;6.60;80.30;;;;;;4146784;28;20038;-83
2023/03/20 04:08:06;;;;;;;2.20;1.45;;;6.60;80.50;;;;;;4149120;28;20030;-83
2023/03/20 04:10:27;;;;;;;4.15;1.85;;;6.60;80.40;;;;;;4148537;28;20033;-83
2023/03/20 04:12:47;;;;;;;3.63;1.95;;;6.60;80.50;;;;;;4148529;28;20033;-82
2023/03/20 04:15:08;;;;;;;5.65;2.08;;;6.60;80.50;;;;;;4145865;28;20076;-83
2023/03/20 04:17:30;;;;;;;4.68;2.05;;;6.60;80.40;;;;;;4143189;28;20034;-82
2023/03/20 04:19:49;;;;;;;3.50;2.10;;;6.60;80.70;;;;;;4139449;28;20576;-84
2023/03/20 04:22:09;;;;;;;3.75;2.05;;;6.70;80.70;;;;;;4145370;28;20053;-84
2023/03/20 04:24:29;;;;;;;4.43;2.30;;;6.60;80.70;;;;;;4126440;28;20101;-83
2023/03/20 04:26:48;;;;;;;5.57;2.67;;;6.60;80.80;;;;;;4143209;28;20050;-82
2023/03/20 04:29:07;;;;;;;5.60;2.58;;;6.60;80.80;;;;;;4144204;28;20044;-82
2023/03/20 04:31:27;;;;;;;8.43;2.78;;;6.60;81.50;;;;;;4125218;28;20113;-82
2023/03/20 04:33:46;;;;;;;5.85;2.70;;;6.60;80.70;;;;;;4127437;28;20230;-83
2023/03/20 04:36:06;;;;;;;5.03;2.80;;;6.60;80.90;;;;;;4145674;28;20133;-83
2023/03/20 04:38:26;;;;;;;5.85;2.42;;;6.60;80.90;;;;;;4144679;28;20064;-83
2023/03/20 04:40:46;;;;;;;7.00;2.80;;;6.60;80.90;;;;;;4141354;28;20080;-84
2023/03/20 04:43:06;;;;;;;6.55;2.85;;;6.60;80.90;;;;;;4140230;28;20105;-83
2023/03/20 04:45:25;;;;;;;8.38;3.28;;;6.70;81.20;;;;;;4142749;28;20049;-83
2023/03/20 04:47:44;;;;;;;6.95;3.40;;;6.60;81.00;;;;;;4143458;28;20407;-83
2023/03/20 04:50:05;;;;;;;6.78;3.58;;;6.60;81.00;;;;;;4126322;28;20117;-82
2023/03/20 04:52:24;;;;;;;11.38;3.97;;;6.60;81.00;;;;;;4141609;28;20037;-81
2023/03/20 04:54:44;;;;;;;10.90;3.30;;;6.60;80.90;;;;;;4144420;28;20125;-82
2023/03/20 04:57:03;;;;;;;11.07;3.20;;;6.60;80.90;;;;;;4132942;28;20037;-83
2023/03/20 04:59:23;;;;;;;10.88;3.47;;;6.60;80.80;;;;;;4125164;28;20809;-83
2023/03/20 05:01:42;;;;;;;8.35;2.95;;;6.60;80.80;;;;;;4127683;28;20088;-82
2023/03/20 05:04:01;;;;;;;9.50;3.25;;;6.60;80.80;;;;;;4129130;28;20081;-83
2023/03/20 05:06:20;;;;;;;9.85;3.17;;;6.60;80.80;;;;;;4131786;28;20241;-83
2023/03/20 05:08:39;;;;;;;7.75;2.40;;;6.60;80.70;;;;;;4147543;28;20065;-82
2023/03/20 05:10:58;;;;;;;10.95;2.25;;;6.70;80.80;;;;;;4145876;28;20053;-82
2023/03/20 05:13:17;;;;;;;5.65;1.80;;;6.50;80.60;;;;;;4148575;28;20140;-83
2023/03/20 05:15:37;;;;;;;11.88;2.28;;;6.50;80.60;;;;;;4148628;28;20081;-83
2023/03/20 05:17:56;;;;;;;8.68;2.33;;;6.50;80.60;;;;;;4133279;28;20543;-82
2023/03/20 05:20:15;;;;;;;11.40;2.17;;;6.50;80.70;;;;;;4147457;28;20109;-83
2023/03/20 05:22:35;;;;;;;10.38;2.67;;;6.50;80.70;;;;;;4146331;28;20730;-83
2023/03/20 05:24:54;;;;;;;10.63;2.50;;;6.50;80.80;;;;;;4150276;28;20045;-84
2023/03/20 05:27:16;;;;;;;11.77;2.65;;;6.50;80.80;;;;;;4146515;28;20056;-82
2023/03/20 05:29:35;;;;;;;9.43;2.17;;;6.50;80.70;;;;;;4141334;28;20158;-82
2023/03/20 05:31:54;;;;;;;13.30;2.35;;;6.50;80.80;;;;;;4140690;28;20036;-82
2023/03/20 05:34:13;;;;;;;11.50;2.60;;;6.50;80.80;;;;;;4142775;28;20045;-83
2023/03/20 05:36:32;;;;;;;6.63;2.08;;;6.50;80.80;;;;;;4143722;28;20112;-82
2023/03/20 05:38:51;;;;;;;9.75;2.70;;;6.50;80.80;;;;;;4126287;28;20055;-82
2023/03/20 05:41:10;;;;;;;8.57;2.08;;;6.50;80.80;;;;;;4144195;28;20105;-83
2023/03/20 05:43:30;;;;;;;8.57;2.45;;;6.50;80.80;;;;;;4140751;28;20060;-83
2023/03/20 05:45:50;;;;;;;9.60;1.90;;;6.50;80.80;;;;;;4131757;28;20093;-83
2023/03/20 05:48:09;;;;;;;12.60;2.63;;;6.50;80.80;;;;;;4132340;28;20041;-82
2023/03/20 05:50:28;;;;;;;8.32;2.30;;;6.40;80.70;;;;;;4147087;28;20113;-81
2023/03/20 05:52:48;;;;;;;9.25;2.50;;;6.40;80.80;;;;;;4146637;28;20044;-81
2023/03/20 05:55:07;;;;;;;10.60;2.72;;;6.50;80.80;;;;;;4145834;28;20040;-81
2023/03/20 05:57:26;;;;;;;16.58;2.80;;;6.40;80.90;;;;;;4130445;28;20045;-81
2023/03/20 05:59:45;;;;;;;11.43;2.45;;;6.40;80.80;;;;;;4126995;28;20061;-83
2023/03/20 06:02:05;;;;;;;14.68;2.90;;;6.40;80.80;;;;;;4141157;28;20771;-81
2023/03/20 06:04:24;;;;;;;11.90;2.80;;;6.40;80.80;;;;;;4141753;28;20092;-81
2023/03/20 06:06:44;;;;;;;7.25;2.63;;;6.40;80.90;;;;;;4137372;28;20136;-81
2023/03/20 06:09:04;;;;;;;8.65;2.85;;;6.40;80.90;;;;;;4126972;28;20387;-82
2023/03/20 06:11:24;;;;;;;10.45;2.58;;;6.40;80.90;;;;;;4124120;28;20037;-81
2023/03/20 06:13:43;;;;;;;9.93;2.40;;;6.40;81.00;;;;;;4140351;28;20080;-82
2023/03/20 06:16:02;;;;;;;11.80;2.60;;;6.40;81.00;;;;;;4141208;28;20060;-82
2023/03/20 06:18:22;;;;;;;8.95;2.63;;;6.40;81.00;;;;;;4128428;28;20144;-82
2023/03/20 06:20:41;;;;;;;20.05;4.70;;;6.40;81.00;;;;;;4141327;28;20057;-83
2023/03/20 06:23:00;;;;;;;9.70;3.00;;;6.40;81.10;;;;;;4144618;28;20097;-83
2023/03/20 06:25:19;;;;;;;7.78;2.47;;;6.40;81.10;;;;;;4144301;28;20037;-83
2023/03/20 06:27:39;;;;;;;10.02;2.92;;;6.40;81.10;;;;;;4131194;28;20089;-82
2023/03/20 06:29:58;;;;;;;10.40;2.75;;;6.40;81.10;;;;;;4143502;28;20085;-83
2023/03/20 06:32:17;;;;;;;13.85;2.70;;;6.50;81.10;;;;;;4144184;28;20053;-83
2023/03/20 06:34:36;;;;;;;14.25;2.88;;;6.50;81.20;;;;;;4144136;28;20041;-83
2023/03/20 06:36:55;;;;;;;9.82;2.97;;;6.60;81.20;;;;;;4124984;28;20145;-83
2023/03/20 06:39:15;;;;;;;10.43;3.10;;;6.40;81.10;;;;;;4143446;28;20519;-83
2023/03/20 06:41:34;;;;;;;9.23;3.10;;;6.50;81.20;;;;;;4143937;28;20077;-82
2023/03/20 06:43:54;;;;;;;12.70;3.15;;;6.50;81.20;;;;;;4144149;28;20076;-83
2023/03/20 06:46:14;;;;;;;10.95;3.25;;;6.50;81.20;;;;;;4142961;28;20170;-83
2023/03/20 06:48:33;;;;;;;7.95;2.92;;;6.50;81.20;;;;;;4127422;28;20045;-82
2023/03/20 06:50:53;;;;;;;11.43;2.88;;;6.50;81.20;;;;;;4131770;28;20124;-83
2023/03/20 06:53:12;;;;;;;11.20;2.95;;;6.50;81.20;;;;;;4128969;28;20126;-83
2023/03/20 06:55:31;;;;;;;15.25;2.97;;;6.50;81.30;;;;;;4141658;28;20522;-83
2023/03/20 06:57:50;;;;;;;8.70;2.38;;;6.50;81.30;;;;;;4144456;28;20045;-83
2023/03/20 07:00:10;;;;;;;5.20;2.53;;;6.50;81.30;;;;;;4146793;28;20180;-83
2023/03/20 07:02:29;;;;;;;8.00;2.90;;;6.50;81.30;;;;;;4144643;28;20037;-82
2023/03/20 07:04:48;;;;;;;10.43;2.58;;;6.50;81.40;;;;;;4142337;28;20052;-83
2023/03/20 07:07:08;;;;;;;10.13;2.97;;;6.60;81.60;;;;;;4142341;28;20053;-82
2023/03/20 07:09:27;;;;;;;10.85;2.50;;;6.50;82.10;;;;;;4141656;28;20407;-83
2023/03/20 07:11:47;;;;;;;12.00;2.50;;;6.50;81.50;;;;;;4140989;28;20114;-83
2023/03/20 07:14:06;;;;;;;7.72;2.50;;;6.50;81.30;;;;;;4144248;28;20049;-84
2023/03/20 07:16:26;;;;;;;9.18;2.42;;;6.60;81.30;;;;;;4143263;28;20065;-82
2023/03/20 07:18:45;;;;;;;11.35;2.58;;;6.60;81.40;;;;;;4143412;28;20044;-82
2023/03/20 07:21:06;;;;;;;10.20;2.90;;;6.60;81.40;;;;;;4141437;28;20045;-82
2023/03/20 07:23:25;;;;;;;9.43;2.83;;;6.60;81.40;;;;;;4139464;28;20044;-82
2023/03/20 07:25:45;;;;;;;8.07;2.92;;;6.60;81.50;;;;;;4142837;28;20597;-83
2023/03/20 07:28:05;;;;;;;6.80;2.38;;;6.60;81.40;;;;;;4141682;28;20045;-82
2023/03/20 07:30:24;;;;;;;7.47;2.30;;;6.60;81.40;;;;;;4140040;28;20037;-82
2023/03/20 07:32:44;;;;;;;10.35;3.00;;;6.60;81.50;;;;;;4140924;28;20164;-82
2023/03/20 07:35:03;;;;;;;9.20;2.17;;;6.60;81.50;;;;;;4141110;28;20049;-82
2023/03/20 07:37:23;;;;;;;8.05;2.08;;;6.70;81.50;;;;;;4144062;28;20101;-83
2023/03/20 07:39:43;;;;;;;12.57;2.33;;;6.60;81.50;;;;;;4138407;28;20571;-82
2023/03/20 07:42:02;;;;;;;4.60;2.00;;;6.60;81.60;;;;;;4144287;28;20037;-83
2023/03/20 07:44:21;;;;;;;7.43;2.33;;;6.70;81.60;;;;;;4145568;28;20044;-83
2023/03/20 07:46:40;;;;;;;10.20;2.75;;;6.70;81.70;;;;;;4142088;28;20741;-82
2023/03/20 07:48:59;;;;;;;8.23;2.30;;;6.70;81.70;;;;;;4126478;28;20580;-82
2023/03/20 07:51:19;;;;;;;10.15;2.45;;;6.70;81.70;;;;;;4141394;28;20238;-83
2023/03/20 07:53:38;;;;;;;7.00;2.55;;;6.70;81.70;;;;;;4144217;28;20037;-82
2023/03/20 07:55:57;;;;;;;10.45;2.20;;;6.70;81.80;;;;;;4142895;28;20102;-82
2023/03/20 07:58:16;;;;;;;4.90;2.15;;;6.70;81.90;;;;;;4142546;28;20052;-82
2023/03/20 08:00:35;;;;;;;6.10;2.42;;;6.80;82.00;;;;;;4128424;28;20041;-82
2023/03/20 08:02:55;;;;;;;5.38;2.55;;;6.80;81.90;;;;;;4141923;28;20044;-82
2023/03/20 08:05:15;;;;;;;9.85;2.22;;;6.80;82.00;;;;;;4126746;28;20142;-82
2023/03/20 08:07:34;;;;;;;5.65;2.42;;;6.80;82.00;;;;;;4142660;28;20581;-83
2023/03/20 08:09:54;;;;;;;4.88;2.03;;;6.90;82.00;;;;;;4143019;28;20049;-82
2023/03/20 08:12:13;;;;;;;5.93;1.95;;;7.00;82.20;;;;;;4144724;28;20546;-82
2023/03/20 08:14:33;;;;;;;7.15;1.90;;;6.90;82.10;;;;;;4144462;28;20045;-83
2023/03/20 08:16:52;;;;;;;4.05;1.67;;;6.90;82.00;;;;;;4124787;28;20465;-82
2023/03/20 08:19:11;;;;;;;4.40;1.45;;;7.00;82.10;;;;;;4141668;28;20072;-83
2023/03/20 08:21:31;;;;;;;6.78;1.70;;;6.90;82.00;;;;;;4141076;28;20064;-82
2023/03/20 08:23:50;;;;;;;4.97;1.25;;;7.00;82.10;;;;;;4129239;28;20100;-83
2023/03/20 08:26:09;;;;;;;6.75;1.83;;;7.00;82.00;;;;;;4128385;28;20034;-82
2023/03/20 08:28:28;;;;;;;3.47;1.50;;;7.00;82.00;;;;;;4141866;28;20091;-82
2023/03/20 08:30:48;;;;;;;4.43;1.58;;;7.00;81.80;;;;;;4142353;28;20139;-82
2023/03/20 08:33:07;;;;;;;4.07;1.75;;;7.00;81.80;;;;;;4143036;28;20046;-83
2023/03/20 08:35:26;;;;;;;4.47;1.85;;;7.10;81.70;;;;;;4143595;28;20032;-83
2023/03/20 08:37:45;;;;;;;3.70;1.63;;;7.10;81.60;;;;;;4142328;28;20092;-82
2023/03/20 08:40:05;;;;;;;6.07;1.60;;;7.10;81.50;;;;;;4146385;28;20071;-83
2023/03/20 08:42:24;;;;;;;4.82;1.55;;;7.10;81.50;;;;;;4128924;28;20038;-85
2023/03/20 08:44:44;;;;;;;9.27;1.45;;;7.10;81.50;;;;;;4147703;28;20045;-83
2023/03/20 08:47:04;;;;;;;5.80;1.40;;;7.10;81.50;;;;;;4145273;28;20149;-83
2023/03/20 08:49:23;;;;;;;6.78;1.55;;;7.10;81.50;;;;;;4143112;28;20099;-83
2023/03/20 08:51:45;;;;;;;2.72;1.48;;;7.10;81.60;;;;;;4147321;28;20209;-83
2023/03/20 08:54:07;;;;;;;6.78;2.00;;;7.10;81.70;;;;;;4146401;28;20083;-83
2023/03/20 08:56:27;;;;;;;5.78;1.83;;;7.10;81.70;;;;;;4146612;28;20080;-84
2023/03/20 08:58:46;;;;;;;4.65;1.80;;;7.20;81.90;;;;;;4129173;28;20131;-83
2023/03/20 09:01:07;;;;;;;4.45;1.70;;;7.20;81.90;;;;;;4144785;28;20045;-83
2023/03/20 09:03:27;;;;;;;6.40;1.90;;;7.20;82.10;;;;;;4146254;28;20056;-85
2023/03/20 09:05:50;;;;;;;4.63;1.50;;;7.20;82.00;;;;;;4144788;28;20095;-83
2023/03/20 09:08:09;;;;;;;4.80;1.80;;;7.20;81.90;;;;;;4127065;28;20574;-83
2023/03/20 09:10:28;;;;;;;7.22;1.63;;;7.30;82.00;;;;;;4146652;28;20037;-83
2023/03/20 09:12:47;;;;;;;7.18;2.13;;;7.30;81.90;;;;;;4140223;28;20033;-83
2023/03/20 09:15:07;;;;;;;4.70;1.77;;;7.30;82.10;;;;;;4138986;28;20722;-83
2023/03/20 09:17:26;;;;;;;7.97;1.70;;;7.30;82.10;;;;;;4124493;28;20033;-82
2023/03/20 09:19:45;;;;;;;6.40;1.80;;;7.30;82.10;;;;;;4122975;28;20112;-83
2023/03/20 09:22:05;;;;;;;3.78;1.48;;;7.40;82.10;;;;;;4126383;28;20045;-84
2023/03/20 09:24:24;;;;;;;5.13;1.73;;;7.40;81.90;;;;;;4123613;28;20081;-83
2023/03/20 09:26:43;;;;;;;5.90;1.58;;;7.40;81.80;;;;;;4125656;28;20595;-82
2023/03/20 09:29:03;;;;;;;5.82;1.67;;;7.50;81.80;;;;;;4124699;28;20583;-83
2023/03/20 09:31:23;;;;;;;2.85;1.50;;;7.40;81.40;;;;;;4137726;28;20021;-83
2023/03/20 09:33:42;;;;;;;5.07;2.20;;;7.40;81.40;;;;;;4142461;28;20096;-83
2023/03/20 09:36:01;;;;;;;4.47;1.73;;;7.50;81.50;;;;;;4140725;28;20040;-83
2023/03/20 09:38:20;;;;;;;7.20;2.03;;;7.40;81.50;;;;;;4127545;28;20106;-83
2023/03/20 09:40:51;;;;;;;9.00;1.50;;;7.40;81.40;;;;;;4146958;28;20088;-83
2023/03/20 09:43:51;;;;;;;6.38;1.95;;;7.40;81.40;;;;;;4147352;28;20041;-83
2023/03/20 09:46:26;;;;;;;3.58;1.77;;;7.40;81.60;;;;;;4130130;28;20042;-83
2023/03/20 09:48:49;;;;;;;;;;;7.40;81.60;;;;;;4142288;28;20041;-84
2023/03/20 09:51:42;;;;;;;6.65;1.80;;;7.50;81.90;;;;;;4130096;28;19924;-83
2023/03/20 09:54:23;;;;;;;5.57;2.42;;;7.50;81.60;;;;;;4146168;28;20033;-83
2023/03/20 09:56:42;;;;;;;5.30;2.20;;;7.50;81.70;;;;;;4143933;28;20058;-83
2023/03/20 09:59:05;;;;;;;9.63;2.70;;;7.50;81.70;;;;;;4142106;28;20072;-83
2023/03/20 10:01:39;;;;;;;14.15;2.42;;;7.60;82.00;;;;;;4144232;28;20133;-84
2023/03/20 10:04:00;;;;;;;;;;;7.60;82.10;;;;;;4151283;28;20044;-83
2023/03/20 10:06:19;;;;;;;10.55;2.55;;;7.60;82.40;;;;;;4148430;28;20016;-83
2023/03/20 10:08:39;;;;;;;5.05;3.00;;;7.70;82.10;;;;;;4149797;28;20100;-83
2023/03/20 10:11:15;;;;;;;5.47;2.40;;;7.80;82.00;;;;;;4152831;28;20088;-83
2023/03/20 10:13:54;;;;;;;7.55;2.50;;;7.70;82.10;;;;;;4136123;28;20081;-83
2023/03/20 10:16:35;;;;;;;7.88;3.10;;;7.80;82.30;;;;;;4149517;28;20113;-83
2023/03/20 10:19:26;;;;;;;10.00;2.58;;;7.90;82.40;;;;;;4141461;28;20526;-83
2023/03/20 10:22:24;;;;;;;12.55;3.10;;;7.90;82.30;;;;;;4143608;28;20044;-83
2023/03/20 10:25:15;;;;;;;6.70;2.88;;;8.00;82.10;;;;;;4144538;28;20067;-83
2023/03/20 10:27:59;;;;;;;10.77;3.58;;;8.00;81.80;;;;;;4142840;28;20050;-84
2023/03/20 10:30:45;;;;;;;11.83;3.30;;;8.00;81.80;;;;;;4146688;28;20092;-83
2023/03/20 10:33:30;;;;;;;9.00;3.30;;;8.10;81.80;;;;;;4148226;28;20076;-83
2023/03/20 10:36:22;;;;;;;9.23;3.78;;;8.10;81.80;;;;;;4129552;28;20539;-83
2023/03/20 10:39:07;;;;;;;11.27;3.85;;;8.10;81.70;;;;;;4145883;28;20105;-84
2023/03/20 10:41:34;;;;;;;;;;;8.20;81.50;;;;;;4149330;28;20512;-83
2023/03/20 10:43:56;;;;;;;10.82;4.38;;;8.20;81.90;;;;;;4146304;28;19955;-83
2023/03/20 10:46:36;;;;;;;10.20;5.22;;;8.20;81.10;;;;;;4132401;28;20041;-84
2023/03/20 10:49:07;;;;;;;11.70;5.45;;;8.20;81.00;;;;;;4148206;28;20089;-83
2023/03/20 10:51:53;;;;;;;10.82;5.97;;;8.20;80.80;;;;;;4149690;28;20112;-83
2023/03/20 10:54:21;;;;;;;9.52;5.63;;;8.20;80.80;;;;;;4132274;28;20033;-84
2023/03/20 10:56:46;;;;;;;15.45;7.03;;;8.30;81.00;;;;;;4147571;28;20080;-83
2023/03/20 10:59:16;;;;;;;11.30;6.43;;;8.20;80.90;;;;;;4150012;28;20095;-82
2023/03/20 11:01:36;;;;;;;14.27;6.68;;;8.20;80.90;;;;;;4154364;28;20037;-82
2023/03/20 11:03:55;;;;;;;15.60;7.20;;;8.20;80.90;;;;;;4153734;28;20037;-82
2023/03/20 11:06:19;;;;;;;14.20;7.78;;;8.20;81.50;;;;;;4147978;28;20053;-82
2023/03/20 11:08:41;;;;;;;17.17;7.57;;;8.20;80.70;;;;;;4141815;28;20812;-83
2023/03/20 11:11:03;;;;;;;17.98;8.07;;;8.20;80.60;;;;;;4126387;28;20335;-83
2023/03/20 11:13:28;;;;;;;21.52;7.68;;;8.30;80.50;;;;;;4138121;28;20420;-82
2023/03/20 11:15:47;;;;;;;19.77;7.85;;;8.30;80.50;;;;;;4143465;28;20065;-83
2023/03/20 11:18:12;;;;;;;21.13;8.85;;;8.30;80.40;;;;;;4126363;28;20086;-83
2023/03/20 11:20:42;;;;;;;24.38;9.38;;;8.20;80.20;;;;;;4141632;28;20684;-82
2023/03/20 11:23:04;;;;;;;20.85;8.40;;;8.20;80.10;;;;;;4145123;28;20048;-83
2023/03/20 11:25:38;;;;;;;19.83;9.10;;;8.30;80.10;;;;;;4136799;28;20451;-83
2023/03/20 11:28:18;;;;;;;;;;;8.30;80.00;;;;;;4126935;28;20433;-85
2023/03/20 11:30:40;;;;;;;26.60;9.27;;;8.20;80.10;;;;;;4129286;28;19925;-83
2023/03/20 11:33:02;;;;;;;23.75;9.25;;;8.20;79.60;;;;;;4134133;28;20277;-83
2023/03/20 11:35:32;;;;;;;24.70;9.00;;;8.20;79.70;;;;;;4146134;28;20053;-83
2023/03/20 11:37:46;;;;;;;25.10;9.95;;;8.10;79.60;;;;;;4111161;28;20030;-83
2023/03/20 11:39:58;;;;;;;29.88;10.90;;;8.20;79.60;;;;;;4144227;28;20026;-82
2023/03/20 11:42:00;;;;;;;27.58;10.10;;;8.20;79.50;;;;;;4140699;28;20026;-82
2023/03/20 11:44:01;;;;;;;31.52;10.00;;;8.20;79.40;;;;;;4141593;28;20060;-83
2023/03/20 11:46:03;;;;;;;22.70;10.27;;;8.10;79.40;;;;;;4127879;28;20459;-82
2023/03/20 11:48:04;;;;;;;34.08;10.90;;;8.10;79.40;;;;;;4126656;28;20034;-83
2023/03/20 11:50:06;;;;;;;28.38;10.88;;;8.10;79.40;;;;;;4145338;28;20021;-83
2023/03/20 11:52:15;;;;;;;22.48;10.07;;;8.10;79.50;;;;;;4144969;28;20028;-82
2023/03/20 11:54:19;;;;;;;22.35;9.38;;;8.10;79.50;;;;;;4145767;28;20076;-82
2023/03/20 11:56:23;;;;;;;21.15;9.30;;;8.10;79.60;;;;;;4146901;28;20022;-82
2023/03/20 11:59:09;;;;;;;15.80;8.38;;;8.10;79.80;;;;;;4140933;28;20030;-81
2023/03/20 12:01:27;;;;;;;20.17;7.75;;;8.10;79.90;;;;;;4125085;28;20137;-82
2023/03/20 12:04:05;;;;;;;18.98;8.98;;;8.10;79.90;;;;;;4142185;28;20129;-83
2023/03/20 12:06:38;;;;;;;19.58;8.93;;;8.10;80.00;;;;;;4140649;28;20048;-82
2023/03/20 12:09:11;;;;;;;30.55;9.57;;;8.10;79.90;;;;;;4126366;28;20033;-82
2023/03/20 12:11:49;;;;;;;26.92;10.18;;;8.10;79.80;;;;;;4142531;28;20100;-82
2023/03/20 12:14:42;;;;;;;31.55;10.05;;;8.10;79.70;;;;;;4142354;28;20064;-82
2023/03/20 12:17:30;;;;;;;27.42;10.93;;;8.20;79.70;;;;;;4072749;29;20062;-82
2023/03/20 12:19:55;;;;;;;24.30;10.52;;;8.10;79.50;;;;;;4064332;29;20048;-82
2023/03/20 12:22:22;;;;;;;29.02;11.15;;;8.10;79.50;;;;;;4074046;29;20060;-82
2023/03/20 12:24:53;;;;;;;20.38;9.77;;;8.10;79.50;;;;;;4080972;29;20417;-83
2023/03/20 12:27:26;;;;;;;26.73;9.25;;;8.10;79.60;;;;;;4071800;29;20027;-82
2023/03/20 12:30:22;;;;;;;24.50;9.85;;;8.10;79.60;;;;;;4078413;29;20091;-82
2023/03/20 12:32:52;;;;;;;24.83;10.50;;;8.10;79.60;;;;;;4061648;29;20032;-82
2023/03/20 12:35:22;;;;;;;26.83;10.68;;;8.10;79.40;;;;;;4082210;29;20039;-82
2023/03/20 12:37:42;;;;;;;25.63;10.85;;;8.20;79.50;;;;;;4076743;29;20039;-83